createdAt,value
2018-11-20T00:01:33.988Z,11.63
2018-11-20T00:04:37.595Z,15.23
2018-11-20T00:07:27.940Z,16.17
2018-11-20T00:10:22.538Z,10.23
2018-11-20T00:13:14.430Z,12.20
2018-11-20T00:16:21.014Z,13.67
2018-11-20T00:19:21.013Z,13.93
2018-11-20T00:22:21.247Z,13.70
2018-11-20T00:25:22.012Z,16.33
2018-11-20T00:28:21.188Z,13.53
2018-11-20T00:31:16.986Z,16.43
2018-11-20T00:34:17.115Z,13.43
2018-11-20T00:37:17.591Z,12.27
2018-11-20T00:40:18.118Z,13.83
2018-11-20T00:43:18.346Z,14.80
2018-11-20T00:46:18.188Z,14.83
2018-11-20T00:49:18.818Z,8.43
2018-11-20T00:52:19.152Z,13.83
2018-11-20T00:55:19.112Z,13.53
2018-11-20T00:58:17.438Z,13.07
2018-11-20T01:01:06.797Z,16.43
2018-11-20T01:04:07.116Z,14.27
2018-11-20T01:07:07.739Z,14.90
2018-11-20T01:10:01.943Z,14.60
2018-11-20T01:16:10.405Z,16.87
2018-11-20T01:19:11.237Z,15.47
2018-11-20T01:22:04.292Z,14.73
2018-11-20T01:25:04.943Z,12.30
2018-11-20T01:28:05.320Z,14.40
2018-11-20T01:31:08.982Z,16.20
2018-11-20T01:34:15.153Z,17.40
2018-11-20T01:37:19.883Z,16.87
2018-11-20T01:40:20.220Z,16.80
2018-11-20T01:43:20.769Z,9.30
2018-11-20T01:46:21.133Z,15.47
2018-11-20T01:49:11.985Z,16.87
2018-11-20T01:58:26.484Z,15.10
2018-11-20T02:01:26.707Z,15.43
2018-11-20T02:04:27.124Z,16.90
2018-11-20T02:07:27.426Z,14.90
2018-11-20T02:10:28.189Z,15.53
2018-11-20T02:13:28.143Z,9.57
2018-11-20T02:17:00.720Z,11.20
2018-11-20T02:20:01.406Z,11.23
2018-11-20T02:29:21.859Z,15.10
2018-11-20T02:32:22.283Z,14.13
2018-11-20T02:35:10.143Z,11.30
2018-11-20T02:38:10.499Z,14.20
2018-11-20T02:41:00.365Z,11.43
2018-11-20T02:44:00.608Z,16.77
2018-11-20T02:47:03.922Z,14.93
2018-11-20T02:53:18.899Z,16.43
2018-11-20T02:56:22.712Z,9.57
2018-11-20T02:59:22.952Z,11.37
2018-11-20T03:02:23.339Z,14.13
2018-11-20T03:05:23.764Z,15.20
2018-11-20T03:08:24.599Z,15.10
2018-11-20T03:11:24.777Z,14.17
2018-11-20T03:14:25.264Z,15.40
2018-11-20T03:17:21.310Z,12.97
2018-11-20T03:20:21.887Z,18.57
2018-11-20T03:23:08.986Z,16.00
2018-11-20T03:26:09.694Z,14.57
2018-11-20T03:29:10.386Z,15.77
2018-11-20T03:32:05.915Z,12.70
2018-11-20T03:35:06.470Z,18.87
2018-11-20T03:38:12.681Z,19.33
2018-11-20T03:41:16.139Z,13.53
2018-11-20T03:44:16.579Z,15.57
2018-11-20T03:47:17.605Z,19.03
2018-11-20T03:50:17.843Z,17.57
2018-11-20T03:53:18.000Z,13.40
2018-11-20T03:56:18.947Z,18.13
2018-11-20T03:59:19.427Z,16.10
2018-11-20T04:02:12.632Z,16.20
2018-11-20T04:05:13.485Z,18.40
2018-11-20T04:08:13.687Z,14.43
2018-11-20T04:11:14.224Z,15.00
2018-11-20T04:14:17.428Z,19.80
2018-11-20T04:17:17.448Z,15.73
2018-11-20T04:20:17.990Z,18.80
2018-11-20T04:23:07.637Z,23.83
2018-11-20T04:26:08.040Z,20.53
2018-11-20T04:29:08.504Z,14.23
2018-11-20T04:32:09.430Z,17.85
2018-11-20T04:35:09.567Z,16.13
2018-11-20T04:38:10.178Z,14.07
2018-11-20T04:41:09.222Z,21.40
2018-11-20T04:44:09.809Z,15.33
2018-11-20T04:47:09.791Z,13.10
2018-11-20T04:53:11.479Z,18.80
2018-11-20T04:56:11.741Z,16.50
2018-11-20T05:01:59.669Z,13.63
2018-11-20T05:04:59.619Z,18.10
2018-11-20T05:08:06.538Z,13.00
2018-11-20T05:11:06.732Z,13.00
2018-11-20T05:14:09.604Z,12.47
2018-11-20T05:20:19.413Z,16.17
2018-11-20T05:23:19.713Z,9.77
2018-11-20T05:26:20.688Z,18.20
2018-11-20T05:29:22.129Z,14.10
2018-11-20T05:32:12.146Z,13.33
2018-11-20T05:35:12.954Z,16.10
2018-11-20T05:38:06.951Z,12.17
2018-11-20T05:41:07.149Z,13.30
2018-11-20T05:44:07.257Z,12.00
2018-11-20T05:47:07.696Z,8.83
2018-11-20T05:50:08.252Z,14.23
2018-11-20T05:56:02.369Z,18.83
2018-11-20T05:59:02.598Z,20.30
2018-11-20T06:02:05.951Z,19.40
2018-11-20T06:05:06.578Z,13.20
2018-11-20T06:08:06.810Z,14.00
2018-11-20T06:11:07.393Z,12.90
2018-11-20T06:14:08.145Z,12.63
2018-11-20T06:17:08.333Z,13.87
2018-11-20T06:19:55.745Z,18.77
2018-11-20T06:22:55.483Z,14.33
2018-11-20T06:25:56.129Z,17.10
2018-11-20T06:28:56.461Z,16.67
2018-11-20T06:31:56.422Z,17.13
2018-11-20T06:34:56.939Z,19.67
2018-11-20T06:37:57.580Z,16.47
2018-11-20T06:44:02.433Z,20.90
2018-11-20T06:47:03.153Z,20.87
2018-11-20T06:50:03.132Z,17.50
2018-11-20T06:53:03.466Z,16.70
2018-11-20T06:56:03.604Z,17.07
2018-11-20T06:58:53.473Z,20.57
2018-11-20T07:01:49.539Z,17.50
2018-11-20T07:04:49.705Z,21.40
2018-11-20T07:07:50.368Z,16.10
2018-11-20T07:10:50.513Z,16.50
2018-11-20T07:13:51.228Z,19.47
2018-11-20T07:16:51.717Z,17.63
2018-11-20T07:19:52.334Z,15.67
2018-11-20T07:22:52.782Z,14.03
2018-11-20T07:25:53.015Z,22.77
2018-11-20T07:28:47.162Z,15.53
2018-11-20T07:31:47.792Z,18.70
2018-11-20T07:34:39.945Z,19.97
2018-11-20T07:37:41.092Z,19.33
2018-11-20T07:40:39.333Z,20.40
2018-11-20T07:43:29.065Z,20.40
2018-11-20T07:46:32.779Z,21.10
2018-11-20T07:49:33.188Z,16.27
2018-11-20T07:52:33.678Z,15.73
2018-11-20T07:55:34.197Z,15.57
2018-11-20T07:58:37.741Z,16.07
2018-11-20T08:01:37.955Z,20.30
2018-11-20T08:04:38.089Z,17.67
2018-11-20T08:07:38.569Z,17.07
2018-11-20T08:10:39.055Z,10.53
2018-11-20T08:13:39.493Z,18.30
2018-11-20T08:16:27.881Z,12.60
2018-11-20T08:19:22.730Z,14.13
2018-11-20T08:22:23.158Z,15.60
2018-11-20T08:25:23.813Z,9.40
2018-11-20T08:28:30.668Z,19.87
2018-11-20T08:31:31.039Z,17.43
2018-11-20T08:34:31.201Z,20.63
2018-11-20T08:37:31.515Z,18.83
2018-11-20T08:40:24.585Z,12.90
2018-11-20T08:43:25.107Z,19.13
2018-11-20T08:46:25.469Z,16.03
2018-11-20T08:49:25.681Z,20.40
2018-11-20T08:52:30.014Z,20.40
2018-11-20T08:58:41.204Z,16.00
2018-11-20T09:01:32.138Z,20.27
2018-11-20T09:04:39.026Z,20.77
2018-11-20T09:07:42.723Z,12.33
2018-11-20T09:10:43.155Z,17.27
2018-11-20T09:13:44.211Z,20.83
2018-11-20T09:16:38.073Z,22.43
2018-11-20T09:19:38.503Z,20.97
2018-11-20T09:22:38.970Z,21.27
2018-11-20T09:25:39.971Z,21.47
2018-11-20T09:28:40.414Z,20.40
2018-11-20T09:31:40.553Z,15.63
2018-11-20T09:34:40.896Z,16.80
2018-11-20T09:37:47.114Z,16.20
2018-11-20T09:40:47.466Z,21.97
2018-11-20T09:43:51.076Z,14.43
2018-11-20T09:46:52.226Z,20.73
2018-11-20T09:49:52.560Z,21.77
2018-11-20T09:52:52.952Z,17.33
2018-11-20T09:55:59.346Z,20.33
2018-11-20T09:59:02.811Z,15.87
2018-11-20T10:02:09.280Z,16.47
2018-11-20T10:05:09.800Z,19.37
2018-11-20T10:08:10.153Z,21.73
2018-11-20T10:11:10.667Z,21.60
2018-11-20T10:14:10.855Z,20.67
2018-11-20T10:17:12.147Z,20.87
2018-11-20T10:23:35.884Z,16.50
2018-11-20T10:26:38.991Z,22.00
2018-11-20T10:29:45.881Z,12.53
2018-11-20T10:32:46.310Z,20.47
2018-11-20T10:35:49.461Z,21.73
2018-11-20T10:38:50.197Z,13.10
2018-11-20T10:45:03.060Z,20.17
2018-11-20T10:48:03.496Z,16.00
2018-11-20T10:51:03.719Z,21.50
2018-11-20T10:54:06.105Z,22.63
2018-11-20T10:57:06.282Z,21.00
2018-11-20T11:00:06.366Z,19.40
2018-11-20T11:03:07.301Z,23.80
2018-11-20T14:49:58.614Z,22.47
2018-11-20T14:52:46.985Z,24.37
2018-11-20T14:55:41.538Z,22.83
2018-11-20T14:58:24.652Z,17.10
2018-11-20T15:01:15.803Z,21.00
2018-11-20T15:04:21.256Z,26.00
2018-11-20T15:07:25.492Z,14.50
2018-11-20T15:10:09.177Z,19.33
2018-11-20T15:12:45.734Z,22.93
2018-11-20T15:15:46.664Z,19.60
2018-11-20T15:18:35.552Z,23.50
2018-11-20T15:21:33.593Z,21.87
2018-11-20T15:24:41.480Z,22.47
2018-11-20T15:27:29.543Z,24.13
2018-11-20T15:30:16.747Z,24.57
2018-11-20T15:33:24.040Z,25.90
2018-11-20T15:36:12.188Z,24.07
2018-11-20T15:39:00.345Z,23.70
2018-11-20T15:41:47.090Z,21.40
2018-11-20T15:44:38.345Z,16.47
2018-11-20T15:47:18.638Z,21.50
2018-11-20T15:50:09.777Z,19.83
2018-11-20T15:52:53.394Z,20.70
2018-11-20T15:55:41.985Z,20.53
2018-11-20T15:58:39.778Z,21.70
2018-11-20T16:01:37.979Z,20.70
2018-11-20T16:04:33.240Z,18.77
2018-11-20T16:07:20.108Z,20.30
2018-11-20T16:10:14.533Z,18.57
2018-11-20T16:13:21.146Z,19.50
2018-11-20T16:16:13.191Z,17.90
2018-11-20T16:19:14.415Z,22.40
2018-11-20T16:22:01.099Z,17.83
2018-11-20T16:24:52.226Z,24.57
2018-11-20T16:27:40.634Z,24.93
2018-11-20T16:30:29.535Z,24.07
2018-11-20T16:33:19.624Z,18.97
2018-11-20T16:36:23.642Z,22.20
2018-11-20T16:39:20.119Z,17.93
2018-11-20T16:42:07.054Z,11.70
2018-11-20T16:45:10.665Z,16.47
2018-11-20T16:48:00.846Z,17.10
2018-11-20T16:50:48.056Z,17.90
2018-11-20T16:53:39.214Z,16.50
2018-11-20T16:56:27.643Z,16.63
2018-11-20T16:59:14.782Z,16.93
2018-11-20T17:01:56.698Z,13.93
2018-11-20T17:04:54.134Z,16.03
2018-11-20T17:07:41.140Z,14.30
2018-11-20T17:10:29.342Z,14.13
2018-11-20T17:13:16.341Z,13.20
2018-11-20T17:16:03.388Z,13.63
2018-11-20T17:18:50.118Z,14.30
2018-11-20T17:21:36.958Z,10.37
2018-11-20T17:24:34.751Z,12.30
2018-11-20T17:27:35.443Z,15.60
2018-11-20T17:30:27.639Z,10.47
2018-11-20T17:33:18.855Z,14.30
2018-11-20T17:36:06.025Z,12.03
2018-11-20T17:38:53.201Z,10.60
2018-11-20T17:41:40.264Z,15.83
2018-11-20T17:44:46.866Z,15.50
2018-11-20T17:47:37.791Z,10.90
2018-11-20T17:50:26.419Z,14.63
2018-11-20T17:53:13.652Z,17.20
2018-11-20T17:56:17.730Z,12.20
2018-11-20T17:59:04.888Z,12.93
2018-11-20T18:01:52.079Z,13.20
2018-11-20T18:04:49.497Z,12.77
2018-11-20T18:07:36.271Z,16.50
2018-11-20T18:10:24.432Z,13.40
2018-11-20T18:13:28.004Z,17.00
2018-11-20T18:16:14.822Z,11.40
2018-11-20T18:19:01.873Z,14.07
2018-11-20T18:21:49.084Z,18.60
2018-11-20T18:24:46.200Z,19.90
2018-11-20T18:27:33.376Z,17.53
2018-11-20T18:30:14.211Z,16.73
2018-11-20T18:33:01.553Z,18.00
2018-11-20T18:36:05.184Z,16.33
2018-11-20T18:39:02.877Z,17.60
2018-11-20T18:41:49.737Z,16.23
2018-11-20T18:44:50.009Z,17.20
2018-11-20T18:47:49.569Z,19.10
2018-11-20T18:50:49.918Z,17.17
2018-11-20T18:53:26.041Z,19.60
2018-11-20T18:56:17.206Z,18.80
2018-11-20T18:59:20.714Z,16.83
2018-11-20T19:02:15.132Z,18.27
2018-11-20T19:05:06.154Z,18.77
2018-11-20T19:07:57.049Z,16.80
2018-11-20T19:10:54.262Z,18.40
2018-11-20T19:13:45.246Z,20.83
2018-11-20T19:16:45.266Z,19.87
2018-11-20T19:19:32.154Z,20.13
2018-11-20T19:22:27.320Z,21.00
2018-11-20T19:25:14.278Z,21.40
2018-11-20T19:28:01.292Z,19.83
2018-11-20T19:30:52.667Z,23.27
2018-11-20T19:33:52.906Z,20.40
2018-11-20T19:36:33.601Z,21.10
2018-11-20T19:39:21.043Z,19.53
2018-11-20T19:42:08.027Z,19.93
2018-11-20T19:44:55.168Z,20.10
2018-11-20T19:47:55.643Z,22.90
2018-11-20T19:50:42.710Z,21.10
2018-11-20T19:53:37.077Z,22.67
2018-11-20T19:56:30.958Z,21.80
2018-11-20T19:59:18.832Z,20.27
2018-11-20T20:02:05.797Z,23.23
2018-11-20T20:04:52.776Z,21.33
2018-11-20T20:07:38.038Z,20.80
2018-11-20T20:10:31.063Z,22.20
2018-11-20T20:13:16.455Z,20.67
2018-11-20T20:16:10.707Z,21.97
2018-11-20T20:18:58.889Z,25.30
2018-11-20T20:21:48.142Z,21.50
2018-11-20T20:24:35.201Z,22.73
2018-11-20T20:27:26.511Z,23.13
2018-11-20T20:30:14.748Z,23.70
2018-11-20T20:32:55.889Z,22.53
2018-11-20T20:35:34.074Z,25.03
2018-11-20T20:38:19.071Z,23.80
2018-11-20T20:41:05.846Z,19.63
2018-11-20T20:43:52.817Z,20.40
2018-11-20T20:46:32.107Z,21.70
2018-11-20T20:49:25.381Z,25.33
2018-11-20T20:52:12.417Z,23.23
2018-11-20T20:54:59.497Z,25.10
2018-11-20T20:57:56.950Z,23.30
2018-11-20T21:01:00.079Z,23.33
2018-11-20T21:03:47.298Z,21.50
2018-11-20T21:06:38.454Z,22.57
2018-11-20T21:09:22.853Z,22.03
2018-11-20T21:12:10.061Z,22.50
2018-11-20T21:14:55.384Z,22.37
2018-11-20T21:17:46.558Z,23.00
2018-11-20T21:20:40.441Z,22.00
2018-11-20T21:23:22.413Z,23.50
2018-11-20T21:26:09.288Z,25.20
2018-11-20T21:28:56.289Z,24.13
2018-11-20T21:31:43.060Z,25.73
2018-11-20T21:34:46.523Z,23.97
2018-11-20T21:37:33.602Z,22.70
2018-11-20T21:40:21.797Z,25.20
2018-11-20T21:43:17.780Z,25.50
2018-11-20T21:45:56.288Z,23.50
2018-11-20T21:48:43.337Z,25.23
2018-11-20T21:51:30.377Z,23.87
2018-11-20T21:54:33.926Z,23.07
2018-11-20T21:57:20.992Z,23.63
2018-11-20T22:00:15.727Z,24.17
2018-11-20T22:03:16.018Z,24.77
2018-11-20T22:06:03.291Z,24.57
2018-11-20T22:08:50.630Z,24.70
2018-11-20T22:11:37.378Z,27.30
2018-11-20T22:14:13.311Z,24.73
2018-11-20T22:17:00.276Z,22.50
2018-11-20T22:19:47.412Z,21.50
2018-11-20T22:22:38.670Z,22.70
2018-11-20T22:25:33.020Z,22.40
2018-11-20T22:28:20.064Z,22.33
2018-11-20T22:31:05.320Z,23.77
2018-11-20T22:33:52.339Z,24.63
2018-11-20T22:36:39.206Z,26.27
2018-11-20T22:39:30.818Z,21.60
2018-11-20T22:42:27.864Z,21.27
2018-11-20T22:45:10.791Z,22.57
2018-11-20T22:48:11.130Z,24.80
2018-11-20T22:51:08.195Z,23.83
2018-11-20T22:54:03.611Z,21.63
2018-11-20T22:56:55.665Z,24.43
2018-11-20T22:59:58.883Z,23.50
2018-11-20T23:02:45.535Z,23.00
2018-11-20T23:05:31.742Z,24.73
2018-11-20T23:08:00.867Z,25.87
2018-11-20T23:10:30.212Z,23.47
2018-11-20T23:12:59.351Z,23.70
2018-11-20T23:15:28.506Z,22.30
2018-11-20T23:17:57.580Z,22.93
2018-11-20T23:20:26.821Z,22.80
2018-11-20T23:22:55.804Z,24.70
2018-11-20T23:25:24.903Z,24.80
2018-11-20T23:27:54.065Z,24.57
2018-11-20T23:30:23.161Z,24.43
2018-11-20T23:32:52.181Z,24.30
2018-11-20T23:35:21.297Z,24.27
2018-11-20T23:37:50.365Z,26.67
2018-11-20T23:40:19.534Z,25.87
2018-11-20T23:42:48.625Z,22.87
2018-11-20T23:45:17.671Z,24.20
2018-11-20T23:47:46.827Z,24.00
2018-11-20T23:50:15.917Z,24.80
2018-11-20T23:52:45.037Z,26.13
2018-11-20T23:55:14.797Z,24.90
2018-11-20T23:57:44.003Z,26.30
